sensor_id;sensor_type;location;lat;lon;timestamp;temperature;humidity
18823;DHT22;9540;51.550;7.980;2023-07-09T00:02:20;18.10;99.90
18823;DHT22;9540;51.550;7.980;2023-07-09T00:04:47;18.00;99.90
18823;DHT22;9540;51.550;7.980;2023-07-09T00:07:27;18.00;99.90
18823;DHT22;9540;51.550;7.980;2023-07-09T00:09:54;18.00;99.90
18823;DHT22;9540;51.550;7.980;2023-07-09T00:12:23;17.90;99.90
18823;DHT22;9540;51.550;7.980;2023-07-09T00:14:50;17.90;99.90
18823;DHT22;9540;51.550;7.980;2023-07-09T00:17:23;17.80;99.90
18823;DHT22;9540;51.550;7.980;2023-07-09T00:19:52;17.80;99.90
18823;DHT22;9540;51.550;7.980;2023-07-09T00:22:20;17.80;99.90
18823;DHT22;9540;51.550;7.980;2023-07-09T00:24:49;17.80;99.90
18823;DHT22;9540;51.550;7.980;2023-07-09T00:27:18;17.70;99.90
18823;DHT22;9540;51.550;7.980;2023-07-09T00:29:46;17.70;99.90
18823;DHT22;9540;51.550;7.980;2023-07-09T00:32:15;17.70;99.90
18823;DHT22;9540;51.550;7.980;2023-07-09T00:34:42;17.60;99.90
18823;DHT22;9540;51.550;7.980;2023-07-09T00:37:15;17.60;99.90
18823;DHT22;9540;51.550;7.980;2023-07-09T00:39:43;17.60;99.90
18823;DHT22;9540;51.550;7.980;2023-07-09T00:42:12;17.60;99.90
18823;DHT22;9540;51.550;7.980;2023-07-09T00:44:40;17.60;99.90
18823;DHT22;9540;51.550;7.980;2023-07-09T00:47:26;17.50;99.90
18823;DHT22;9540;51.550;7.980;2023-07-09T00:50:15;17.50;99.90
18823;DHT22;9540;51.550;7.980;2023-07-09T00:52:51;17.40;99.90
18823;DHT22;9540;51.550;7.980;2023-07-09T00:55:25;17.40;99.90
18823;DHT22;9540;51.550;7.980;2023-07-09T00:57:56;17.40;99.90
18823;DHT22;9540;51.550;7.980;2023-07-09T01:00:28;17.40;99.90
18823;DHT22;9540;51.550;7.980;2023-07-09T01:03:10;17.30;99.90
18823;DHT22;9540;51.550;7.980;2023-07-09T01:05:38;17.30;99.90
18823;DHT22;9540;51.550;7.980;2023-07-09T01:08:07;17.30;99.90
18823;DHT22;9540;51.550;7.980;2023-07-09T01:10:35;17.30;99.90
18823;DHT22;9540;51.550;7.980;2023-07-09T01:13:02;17.30;99.90
18823;DHT22;9540;51.550;7.980;2023-07-09T01:15:29;17.30;99.90
18823;DHT22;9540;51.550;7.980;2023-07-09T01:17:59;17.30;99.90
18823;DHT22;9540;51.550;7.980;2023-07-09T01:20:28;17.30;99.90
18823;DHT22;9540;51.550;7.980;2023-07-09T01:22:57;17.20;99.90
18823;DHT22;9540;51.550;7.980;2023-07-09T01:25:27;17.20;99.90
18823;DHT22;9540;51.550;7.980;2023-07-09T01:27:55;17.20;99.90
18823;DHT22;9540;51.550;7.980;2023-07-09T01:30:25;17.20;99.90
18823;DHT22;9540;51.550;7.980;2023-07-09T01:32:57;17.10;99.90
18823;DHT22;9540;51.550;7.980;2023-07-09T01:35:25;17.10;99.90
18823;DHT22;9540;51.550;7.980;2023-07-09T01:37:55;17.00;99.90
18823;DHT22;9540;51.550;7.980;2023-07-09T01:40:25;17.00;99.90
18823;DHT22;9540;51.550;7.980;2023-07-09T01:42:54;16.90;99.90
18823;DHT22;9540;51.550;7.980;2023-07-09T01:45:22;16.90;99.90
18823;DHT22;9540;51.550;7.980;2023-07-09T01:47:50;17.00;99.90
18823;DHT22;9540;51.550;7.980;2023-07-09T01:50:19;16.90;99.90
18823;DHT22;9540;51.550;7.980;2023-07-09T01:52:46;17.00;99.90
18823;DHT22;9540;51.550;7.980;2023-07-09T01:55:15;17.00;99.90
18823;DHT22;9540;51.550;7.980;2023-07-09T01:57:44;17.00;99.90
18823;DHT22;9540;51.550;7.980;2023-07-09T02:00:14;17.00;99.90
18823;DHT22;9540;51.550;7.980;2023-07-09T02:02:42;16.90;99.90
18823;DHT22;9540;51.550;7.980;2023-07-09T02:05:10;16.90;99.90
18823;DHT22;9540;51.550;7.980;2023-07-09T02:07:38;16.90;99.90
18823;DHT22;9540;51.550;7.980;2023-07-09T02:10:06;16.90;99.90
18823;DHT22;9540;51.550;7.980;2023-07-09T02:12:33;16.90;99.90
18823;DHT22;9540;51.550;7.980;2023-07-09T02:15:02;16.90;99.90
18823;DHT22;9540;51.550;7.980;2023-07-09T02:17:29;16.90;99.90
18823;DHT22;9540;51.550;7.980;2023-07-09T02:19:56;16.90;99.90
18823;DHT22;9540;51.550;7.980;2023-07-09T02:22:23;16.90;99.90
18823;DHT22;9540;51.550;7.980;2023-07-09T02:24:50;16.90;99.90
18823;DHT22;9540;51.550;7.980;2023-07-09T02:27:19;16.90;99.90
18823;DHT22;9540;51.550;7.980;2023-07-09T02:29:46;16.90;99.90
18823;DHT22;9540;51.550;7.980;2023-07-09T02:32:18;16.80;99.90
18823;DHT22;9540;51.550;7.980;2023-07-09T02:34:45;16.80;99.90
18823;DHT22;9540;51.550;7.980;2023-07-09T02:37:15;16.70;99.90
18823;DHT22;9540;51.550;7.980;2023-07-09T02:39:43;16.70;99.90
18823;DHT22;9540;51.550;7.980;2023-07-09T02:42:11;16.60;99.90
18823;DHT22;9540;51.550;7.980;2023-07-09T02:44:39;16.60;99.90
18823;DHT22;9540;51.550;7.980;2023-07-09T02:47:06;16.50;99.90
18823;DHT22;9540;51.550;7.980;2023-07-09T02:49:36;16.50;99.90
18823;DHT22;9540;51.550;7.980;2023-07-09T02:52:04;16.40;99.90
18823;DHT22;9540;51.550;7.980;2023-07-09T02:54:31;16.40;99.90
18823;DHT22;9540;51.550;7.980;2023-07-09T02:56:59;16.40;99.90
18823;DHT22;9540;51.550;7.980;2023-07-09T02:59:26;16.40;99.90
18823;DHT22;9540;51.550;7.980;2023-07-09T03:01:55;16.50;99.90
18823;DHT22;9540;51.550;7.980;2023-07-09T03:04:22;16.50;99.90
18823;DHT22;9540;51.550;7.980;2023-07-09T03:06:50;16.60;99.90
18823;DHT22;9540;51.550;7.980;2023-07-09T03:09:17;16.70;99.90
18823;DHT22;9540;51.550;7.980;2023-07-09T03:11:44;16.70;99.90
18823;DHT22;9540;51.550;7.980;2023-07-09T03:14:11;16.70;99.90
18823;DHT22;9540;51.550;7.980;2023-07-09T03:16:38;16.70;99.90
18823;DHT22;9540;51.550;7.980;2023-07-09T03:19:05;16.60;99.90
18823;DHT22;9540;51.550;7.980;2023-07-09T03:21:32;16.60;99.90
18823;DHT22;9540;51.550;7.980;2023-07-09T03:24:01;16.60;99.90
18823;DHT22;9540;51.550;7.980;2023-07-09T03:26:28;16.50;99.90
18823;DHT22;9540;51.550;7.980;2023-07-09T03:28:55;16.50;99.90
18823;DHT22;9540;51.550;7.980;2023-07-09T03:31:22;16.40;99.90
18823;DHT22;9540;51.550;7.980;2023-07-09T03:33:50;16.40;99.90
18823;DHT22;9540;51.550;7.980;2023-07-09T03:36:18;16.50;99.90
18823;DHT22;9540;51.550;7.980;2023-07-09T03:38:46;16.50;99.90
18823;DHT22;9540;51.550;7.980;2023-07-09T03:41:15;16.50;99.90
18823;DHT22;9540;51.550;7.980;2023-07-09T03:43:42;16.50;99.90
18823;DHT22;9540;51.550;7.980;2023-07-09T03:46:09;16.60;99.90
18823;DHT22;9540;51.550;7.980;2023-07-09T03:48:36;16.70;99.90
18823;DHT22;9540;51.550;7.980;2023-07-09T03:51:03;16.80;99.90
18823;DHT22;9540;51.550;7.980;2023-07-09T03:53:30;16.80;99.90
18823;DHT22;9540;51.550;7.980;2023-07-09T03:55:57;16.80;99.90
18823;DHT22;9540;51.550;7.980;2023-07-09T03:58:27;16.90;99.90
18823;DHT22;9540;51.550;7.980;2023-07-09T04:00:54;17.00;99.90
18823;DHT22;9540;51.550;7.980;2023-07-09T04:03:22;17.00;99.90
18823;DHT22;9540;51.550;7.980;2023-07-09T04:05:49;17.10;99.90
18823;DHT22;9540;51.550;7.980;2023-07-09T04:08:17;17.10;99.90
18823;DHT22;9540;51.550;7.980;2023-07-09T04:10:44;17.20;99.90
18823;DHT22;9540;51.550;7.980;2023-07-09T04:13:11;17.20;99.90
18823;DHT22;9540;51.550;7.980;2023-07-09T04:15:39;17.20;99.90
18823;DHT22;9540;51.550;7.980;2023-07-09T04:18:06;17.30;99.90
18823;DHT22;9540;51.550;7.980;2023-07-09T04:20:33;17.30;99.90
18823;DHT22;9540;51.550;7.980;2023-07-09T04:23:01;17.30;99.90
18823;DHT22;9540;51.550;7.980;2023-07-09T04:25:28;17.30;99.90
18823;DHT22;9540;51.550;7.980;2023-07-09T04:27:55;17.40;99.90
18823;DHT22;9540;51.550;7.980;2023-07-09T04:30:22;17.50;99.90
18823;DHT22;9540;51.550;7.980;2023-07-09T04:32:51;17.60;99.90
18823;DHT22;9540;51.550;7.980;2023-07-09T04:35:18;17.70;99.90
18823;DHT22;9540;51.550;7.980;2023-07-09T04:37:45;17.70;99.90
18823;DHT22;9540;51.550;7.980;2023-07-09T04:40:12;17.90;99.90
18823;DHT22;9540;51.550;7.980;2023-07-09T04:42:41;18.00;99.90
18823;DHT22;9540;51.550;7.980;2023-07-09T04:45:10;18.10;99.90
18823;DHT22;9540;51.550;7.980;2023-07-09T04:47:38;18.20;99.90
18823;DHT22;9540;51.550;7.980;2023-07-09T04:50:08;18.30;99.90
18823;DHT22;9540;51.550;7.980;2023-07-09T04:52:36;18.40;99.90
18823;DHT22;9540;51.550;7.980;2023-07-09T04:55:04;18.50;99.90
18823;DHT22;9540;51.550;7.980;2023-07-09T04:57:31;18.70;99.90
18823;DHT22;9540;51.550;7.980;2023-07-09T04:59:58;18.80;99.90
18823;DHT22;9540;51.550;7.980;2023-07-09T05:02:25;18.90;99.90
18823;DHT22;9540;51.550;7.980;2023-07-09T05:04:52;19.00;99.90
18823;DHT22;9540;51.550;7.980;2023-07-09T05:07:20;19.20;99.90
18823;DHT22;9540;51.550;7.980;2023-07-09T05:09:48;19.30;99.90
18823;DHT22;9540;51.550;7.980;2023-07-09T05:12:15;19.40;99.90
18823;DHT22;9540;51.550;7.980;2023-07-09T05:14:42;19.50;99.90
18823;DHT22;9540;51.550;7.980;2023-07-09T05:17:09;19.60;99.90
18823;DHT22;9540;51.550;7.980;2023-07-09T05:19:36;19.70;99.90
18823;DHT22;9540;51.550;7.980;2023-07-09T05:22:03;19.80;99.90
18823;DHT22;9540;51.550;7.980;2023-07-09T05:24:32;19.90;99.90
18823;DHT22;9540;51.550;7.980;2023-07-09T05:26:59;20.10;99.90
18823;DHT22;9540;51.550;7.980;2023-07-09T05:29:26;20.30;99.90
18823;DHT22;9540;51.550;7.980;2023-07-09T05:31:53;20.60;99.90
18823;DHT22;9540;51.550;7.980;2023-07-09T05:34:20;20.90;99.90
18823;DHT22;9540;51.550;7.980;2023-07-09T05:36:48;21.10;99.90
18823;DHT22;9540;51.550;7.980;2023-07-09T05:39:15;21.40;99.90
18823;DHT22;9540;51.550;7.980;2023-07-09T05:41:44;21.60;99.90
18823;DHT22;9540;51.550;7.980;2023-07-09T05:44:11;21.80;99.90
18823;DHT22;9540;51.550;7.980;2023-07-09T05:46:38;22.00;99.90
18823;DHT22;9540;51.550;7.980;2023-07-09T05:49:06;22.20;99.90
18823;DHT22;9540;51.550;7.980;2023-07-09T05:51:34;22.30;99.90
18823;DHT22;9540;51.550;7.980;2023-07-09T05:54:01;22.40;99.90
18823;DHT22;9540;51.550;7.980;2023-07-09T05:56:28;22.50;99.90
18823;DHT22;9540;51.550;7.980;2023-07-09T05:58:57;22.60;99.90
18823;DHT22;9540;51.550;7.980;2023-07-09T06:01:24;22.70;99.90
18823;DHT22;9540;51.550;7.980;2023-07-09T06:03:52;22.90;99.90
18823;DHT22;9540;51.550;7.980;2023-07-09T06:06:20;22.90;99.90
18823;DHT22;9540;51.550;7.980;2023-07-09T06:08:47;23.10;99.90
18823;DHT22;9540;51.550;7.980;2023-07-09T06:11:15;23.10;99.90
18823;DHT22;9540;51.550;7.980;2023-07-09T06:13:44;23.20;99.90
18823;DHT22;9540;51.550;7.980;2023-07-09T06:16:14;23.30;99.90
18823;DHT22;9540;51.550;7.980;2023-07-09T06:18:41;23.40;99.90
18823;DHT22;9540;51.550;7.980;2023-07-09T06:21:08;23.40;99.90
18823;DHT22;9540;51.550;7.980;2023-07-09T06:23:37;23.50;99.90
18823;DHT22;9540;51.550;7.980;2023-07-09T06:26:04;23.60;99.90
18823;DHT22;9540;51.550;7.980;2023-07-09T06:28:31;23.70;99.90
18823;DHT22;9540;51.550;7.980;2023-07-09T06:30:58;23.80;99.90
18823;DHT22;9540;51.550;7.980;2023-07-09T06:33:27;23.90;99.90
18823;DHT22;9540;51.550;7.980;2023-07-09T06:35:55;24.00;99.90
18823;DHT22;9540;51.550;7.980;2023-07-09T06:38:23;24.10;99.90
18823;DHT22;9540;51.550;7.980;2023-07-09T06:40:50;24.30;99.90
18823;DHT22;9540;51.550;7.980;2023-07-09T06:43:18;24.30;99.90
18823;DHT22;9540;51.550;7.980;2023-07-09T06:45:49;24.40;99.90
18823;DHT22;9540;51.550;7.980;2023-07-09T06:48:16;24.50;99.90
18823;DHT22;9540;51.550;7.980;2023-07-09T06:50:45;24.60;99.90
18823;DHT22;9540;51.550;7.980;2023-07-09T06:53:12;24.70;99.90
18823;DHT22;9540;51.550;7.980;2023-07-09T06:55:39;24.80;99.90
18823;DHT22;9540;51.550;7.980;2023-07-09T06:58:06;24.90;99.90
18823;DHT22;9540;51.550;7.980;2023-07-09T07:00:34;25.00;99.90
18823;DHT22;9540;51.550;7.980;2023-07-09T07:03:02;25.10;99.90
18823;DHT22;9540;51.550;7.980;2023-07-09T07:05:29;25.20;99.90
18823;DHT22;9540;51.550;7.980;2023-07-09T07:07:58;25.20;99.90
18823;DHT22;9540;51.550;7.980;2023-07-09T07:10:26;25.30;99.90
18823;DHT22;9540;51.550;7.980;2023-07-09T07:12:53;25.40;99.90
18823;DHT22;9540;51.550;7.980;2023-07-09T07:15:20;25.50;99.90
18823;DHT22;9540;51.550;7.980;2023-07-09T07:17:48;25.60;99.90
18823;DHT22;9540;51.550;7.980;2023-07-09T07:20:16;25.70;99.90
18823;DHT22;9540;51.550;7.980;2023-07-09T07:22:43;25.80;99.90
18823;DHT22;9540;51.550;7.980;2023-07-09T07:25:12;25.90;99.90
18823;DHT22;9540;51.550;7.980;2023-07-09T07:27:39;26.00;99.90
18823;DHT22;9540;51.550;7.980;2023-07-09T07:30:07;26.10;99.90
18823;DHT22;9540;51.550;7.980;2023-07-09T07:32:38;26.20;99.90
18823;DHT22;9540;51.550;7.980;2023-07-09T07:35:06;26.30;99.90
18823;DHT22;9540;51.550;7.980;2023-07-09T07:37:33;26.30;99.90
18823;DHT22;9540;51.550;7.980;2023-07-09T07:40:00;26.40;99.90
18823;DHT22;9540;51.550;7.980;2023-07-09T07:42:29;26.50;99.90
18823;DHT22;9540;51.550;7.980;2023-07-09T07:44:56;26.60;99.90
18823;DHT22;9540;51.550;7.980;2023-07-09T07:47:23;26.60;99.90
18823;DHT22;9540;51.550;7.980;2023-07-09T07:49:51;26.60;99.90
18823;DHT22;9540;51.550;7.980;2023-07-09T07:52:18;26.60;99.90
18823;DHT22;9540;51.550;7.980;2023-07-09T07:54:45;26.70;99.90
18823;DHT22;9540;51.550;7.980;2023-07-09T07:57:12;26.70;99.90
18823;DHT22;9540;51.550;7.980;2023-07-09T07:59:41;26.80;99.90
18823;DHT22;9540;51.550;7.980;2023-07-09T08:02:12;26.90;99.90
18823;DHT22;9540;51.550;7.980;2023-07-09T08:04:41;27.00;99.90
18823;DHT22;9540;51.550;7.980;2023-07-09T08:07:09;27.00;99.90
18823;DHT22;9540;51.550;7.980;2023-07-09T08:09:36;27.10;99.90
18823;DHT22;9540;51.550;7.980;2023-07-09T08:12:06;27.30;99.90
18823;DHT22;9540;51.550;7.980;2023-07-09T08:14:37;27.30;99.90
18823;DHT22;9540;51.550;7.980;2023-07-09T08:17:06;27.40;99.90
18823;DHT22;9540;51.550;7.980;2023-07-09T08:19:44;27.50;99.90
18823;DHT22;9540;51.550;7.980;2023-07-09T08:22:11;27.60;99.90
18823;DHT22;9540;51.550;7.980;2023-07-09T08:24:39;27.70;99.90
18823;DHT22;9540;51.550;7.980;2023-07-09T08:27:06;27.80;99.90
18823;DHT22;9540;51.550;7.980;2023-07-09T08:29:34;28.00;99.90
18823;DHT22;9540;51.550;7.980;2023-07-09T08:32:02;28.10;99.90
18823;DHT22;9540;51.550;7.980;2023-07-09T08:34:30;28.10;99.90
18823;DHT22;9540;51.550;7.980;2023-07-09T08:36:58;28.20;99.90
18823;DHT22;9540;51.550;7.980;2023-07-09T08:39:25;28.30;99.90
18823;DHT22;9540;51.550;7.980;2023-07-09T08:41:57;28.40;99.90
18823;DHT22;9540;51.550;7.980;2023-07-09T08:44:50;28.50;99.90
18823;DHT22;9540;51.550;7.980;2023-07-09T08:47:27;28.60;99.90
18823;DHT22;9540;51.550;7.980;2023-07-09T08:50:01;28.70;99.90
18823;DHT22;9540;51.550;7.980;2023-07-09T08:52:33;28.70;99.90
18823;DHT22;9540;51.550;7.980;2023-07-09T08:55:05;28.70;99.90
18823;DHT22;9540;51.550;7.980;2023-07-09T08:57:37;28.80;99.90
18823;DHT22;9540;51.550;7.980;2023-07-09T09:00:13;28.80;99.90
18823;DHT22;9540;51.550;7.980;2023-07-09T09:02:49;29.00;99.90
18823;DHT22;9540;51.550;7.980;2023-07-09T09:05:20;29.00;99.90
18823;DHT22;9540;51.550;7.980;2023-07-09T09:07:51;29.10;99.90
18823;DHT22;9540;51.550;7.980;2023-07-09T09:10:26;29.10;99.90
18823;DHT22;9540;51.550;7.980;2023-07-09T09:13:09;29.20;99.90
18823;DHT22;9540;51.550;7.980;2023-07-09T09:15:39;29.30;99.90
18823;DHT22;9540;51.550;7.980;2023-07-09T09:18:20;29.40;99.90
18823;DHT22;9540;51.550;7.980;2023-07-09T09:20:54;29.50;99.90
18823;DHT22;9540;51.550;7.980;2023-07-09T09:23:26;29.50;99.90
18823;DHT22;9540;51.550;7.980;2023-07-09T09:25:56;29.60;99.90
18823;DHT22;9540;51.550;7.980;2023-07-09T09:28:27;29.60;99.90
18823;DHT22;9540;51.550;7.980;2023-07-09T09:30:54;29.70;99.90
18823;DHT22;9540;51.550;7.980;2023-07-09T09:33:21;29.80;99.90
18823;DHT22;9540;51.550;7.980;2023-07-09T09:35:50;29.90;99.90
18823;DHT22;9540;51.550;7.980;2023-07-09T09:38:28;29.90;99.90
18823;DHT22;9540;51.550;7.980;2023-07-09T09:40:59;30.00;99.90
18823;DHT22;9540;51.550;7.980;2023-07-09T09:43:32;30.00;99.90
18823;DHT22;9540;51.550;7.980;2023-07-09T09:45:59;30.10;99.90
18823;DHT22;9540;51.550;7.980;2023-07-09T09:48:29;30.10;99.90
18823;DHT22;9540;51.550;7.980;2023-07-09T09:50:59;30.20;99.90
18823;DHT22;9540;51.550;7.980;2023-07-09T09:53:36;30.30;99.90
18823;DHT22;9540;51.550;7.980;2023-07-09T09:56:05;30.30;99.90
18823;DHT22;9540;51.550;7.980;2023-07-09T09:58:32;30.40;99.90
18823;DHT22;9540;51.550;7.980;2023-07-09T10:01:00;30.40;99.90
18823;DHT22;9540;51.550;7.980;2023-07-09T10:03:33;30.50;99.90
18823;DHT22;9540;51.550;7.980;2023-07-09T10:06:07;30.50;99.90
18823;DHT22;9540;51.550;7.980;2023-07-09T10:08:43;30.60;99.90
18823;DHT22;9540;51.550;7.980;2023-07-09T10:11:19;30.60;99.90
18823;DHT22;9540;51.550;7.980;2023-07-09T10:13:50;30.80;99.90
18823;DHT22;9540;51.550;7.980;2023-07-09T10:16:27;31.00;99.90
18823;DHT22;9540;51.550;7.980;2023-07-09T10:19:09;31.30;99.90
18823;DHT22;9540;51.550;7.980;2023-07-09T10:21:45;31.30;99.90
18823;DHT22;9540;51.550;7.980;2023-07-09T10:24:25;31.40;99.90
18823;DHT22;9540;51.550;7.980;2023-07-09T10:27:03;31.50;99.90
18823;DHT22;9540;51.550;7.980;2023-07-09T10:29:54;31.50;98.10
18823;DHT22;9540;51.550;7.980;2023-07-09T10:32:33;31.70;95.50
18823;DHT22;9540;51.550;7.980;2023-07-09T10:35:08;31.90;97.10
18823;DHT22;9540;51.550;7.980;2023-07-09T10:38:00;32.00;99.50
18823;DHT22;9540;51.550;7.980;2023-07-09T10:40:33;32.00;99.20
18823;DHT22;9540;51.550;7.980;2023-07-09T10:43:05;32.00;99.90
18823;DHT22;9540;51.550;7.980;2023-07-09T10:45:38;31.90;99.90
18823;DHT22;9540;51.550;7.980;2023-07-09T10:48:10;31.80;92.80
18823;DHT22;9540;51.550;7.980;2023-07-09T10:50:41;31.70;94.80
18823;DHT22;9540;51.550;7.980;2023-07-09T10:53:13;31.60;91.50
18823;DHT22;9540;51.550;7.980;2023-07-09T10:55:47;31.70;97.00
18823;DHT22;9540;51.550;7.980;2023-07-09T10:58:26;31.70;96.10
18823;DHT22;9540;51.550;7.980;2023-07-09T11:00:55;31.70;96.70
18823;DHT22;9540;51.550;7.980;2023-07-09T11:03:37;31.90;99.90
18823;DHT22;9540;51.550;7.980;2023-07-09T11:06:08;32.00;97.20
18823;DHT22;9540;51.550;7.980;2023-07-09T11:08:41;32.00;99.60
18823;DHT22;9540;51.550;7.980;2023-07-09T11:11:13;32.00;95.00
18823;DHT22;9540;51.550;7.980;2023-07-09T11:13:47;32.00;95.00
18823;DHT22;9540;51.550;7.980;2023-07-09T11:16:23;32.10;94.60
18823;DHT22;9540;51.550;7.980;2023-07-09T11:18:55;32.10;94.30
18823;DHT22;9540;51.550;7.980;2023-07-09T11:21:22;32.10;95.60
18823;DHT22;9540;51.550;7.980;2023-07-09T11:23:53;32.10;94.60
18823;DHT22;9540;51.550;7.980;2023-07-09T11:26:23;32.00;95.20
18823;DHT22;9540;51.550;7.980;2023-07-09T11:28:53;32.10;96.00
18823;DHT22;9540;51.550;7.980;2023-07-09T11:31:24;32.10;94.40
18823;DHT22;9540;51.550;7.980;2023-07-09T11:34:02;32.20;98.00
18823;DHT22;9540;51.550;7.980;2023-07-09T11:36:30;32.20;95.10
18823;DHT22;9540;51.550;7.980;2023-07-09T11:39:00;32.20;94.30
18823;DHT22;9540;51.550;7.980;2023-07-09T11:41:38;32.20;94.40
18823;DHT22;9540;51.550;7.980;2023-07-09T11:44:15;32.20;91.80
18823;DHT22;9540;51.550;7.980;2023-07-09T11:46:54;32.40;95.30
18823;DHT22;9540;51.550;7.980;2023-07-09T11:49:26;32.40;93.80
18823;DHT22;9540;51.550;7.980;2023-07-09T11:51:57;32.40;93.10
18823;DHT22;9540;51.550;7.980;2023-07-09T11:54:27;32.40;93.80
18823;DHT22;9540;51.550;7.980;2023-07-09T11:56:55;32.50;94.20
18823;DHT22;9540;51.550;7.980;2023-07-09T11:59:23;32.50;95.30
18823;DHT22;9540;51.550;7.980;2023-07-09T12:01:51;32.50;95.20
18823;DHT22;9540;51.550;7.980;2023-07-09T12:04:22;32.60;95.80
18823;DHT22;9540;51.550;7.980;2023-07-09T12:06:52;32.70;93.40
18823;DHT22;9540;51.550;7.980;2023-07-09T12:09:29;32.70;92.20
18823;DHT22;9540;51.550;7.980;2023-07-09T12:12:01;32.70;92.20
18823;DHT22;9540;51.550;7.980;2023-07-09T12:14:28;32.70;93.70
18823;DHT22;9540;51.550;7.980;2023-07-09T12:16:55;32.80;93.60
18823;DHT22;9540;51.550;7.980;2023-07-09T12:19:23;32.80;92.80
18823;DHT22;9540;51.550;7.980;2023-07-09T12:21:55;32.80;91.30
18823;DHT22;9540;51.550;7.980;2023-07-09T12:24:24;32.90;92.00
18823;DHT22;9540;51.550;7.980;2023-07-09T12:26:52;33.00;92.00
18823;DHT22;9540;51.550;7.980;2023-07-09T12:29:27;33.00;92.40
18823;DHT22;9540;51.550;7.980;2023-07-09T12:31:58;33.00;92.10
18823;DHT22;9540;51.550;7.980;2023-07-09T12:34:36;33.00;93.70
18823;DHT22;9540;51.550;7.980;2023-07-09T12:37:12;32.90;93.70
18823;DHT22;9540;51.550;7.980;2023-07-09T12:39:42;32.90;94.50
18823;DHT22;9540;51.550;7.980;2023-07-09T12:42:15;32.90;93.90
18823;DHT22;9540;51.550;7.980;2023-07-09T12:44:50;32.90;92.30
18823;DHT22;9540;51.550;7.980;2023-07-09T12:47:33;32.90;92.00
18823;DHT22;9540;51.550;7.980;2023-07-09T12:50:02;32.90;91.90
18823;DHT22;9540;51.550;7.980;2023-07-09T12:52:30;32.90;90.00
18823;DHT22;9540;51.550;7.980;2023-07-09T12:54:57;32.90;90.80
18823;DHT22;9540;51.550;7.980;2023-07-09T12:57:25;33.00;91.80
18823;DHT22;9540;51.550;7.980;2023-07-09T12:59:55;33.00;93.50
18823;DHT22;9540;51.550;7.980;2023-07-09T13:02:23;33.00;93.80
18823;DHT22;9540;51.550;7.980;2023-07-09T13:04:59;32.90;94.00
18823;DHT22;9540;51.550;7.980;2023-07-09T13:07:31;32.90;92.30
18823;DHT22;9540;51.550;7.980;2023-07-09T13:10:07;33.00;91.10
18823;DHT22;9540;51.550;7.980;2023-07-09T13:12:34;33.10;89.60
18823;DHT22;9540;51.550;7.980;2023-07-09T13:15:19;33.10;86.20
18823;DHT22;9540;51.550;7.980;2023-07-09T13:17:48;33.00;87.10
18823;DHT22;9540;51.550;7.980;2023-07-09T13:20:15;33.00;88.40
18823;DHT22;9540;51.550;7.980;2023-07-09T13:22:43;32.90;85.50
18823;DHT22;9540;51.550;7.980;2023-07-09T13:25:11;32.70;88.30
18823;DHT22;9540;51.550;7.980;2023-07-09T13:27:38;32.70;88.20
18823;DHT22;9540;51.550;7.980;2023-07-09T13:30:08;32.70;87.80
18823;DHT22;9540;51.550;7.980;2023-07-09T13:32:35;32.70;90.40
18823;DHT22;9540;51.550;7.980;2023-07-09T13:35:02;32.70;90.90
18823;DHT22;9540;51.550;7.980;2023-07-09T13:37:30;32.50;90.10
18823;DHT22;9540;51.550;7.980;2023-07-09T13:39:57;32.40;91.60
18823;DHT22;9540;51.550;7.980;2023-07-09T13:42:25;32.40;90.80
18823;DHT22;9540;51.550;7.980;2023-07-09T13:44:52;32.40;92.70
18823;DHT22;9540;51.550;7.980;2023-07-09T13:47:22;32.40;93.80
18823;DHT22;9540;51.550;7.980;2023-07-09T13:49:49;32.30;94.00
18823;DHT22;9540;51.550;7.980;2023-07-09T13:52:19;32.20;92.80
18823;DHT22;9540;51.550;7.980;2023-07-09T13:54:47;32.20;93.50
18823;DHT22;9540;51.550;7.980;2023-07-09T13:57:17;32.20;95.20
18823;DHT22;9540;51.550;7.980;2023-07-09T13:59:45;32.10;96.30
18823;DHT22;9540;51.550;7.980;2023-07-09T14:02:20;32.10;97.40
18823;DHT22;9540;51.550;7.980;2023-07-09T14:04:50;32.10;96.90
18823;DHT22;9540;51.550;7.980;2023-07-09T14:07:27;32.00;99.00
18823;DHT22;9540;51.550;7.980;2023-07-09T14:09:55;32.00;99.90
18823;DHT22;9540;51.550;7.980;2023-07-09T14:12:22;31.90;99.90
18823;DHT22;9540;51.550;7.980;2023-07-09T14:14:51;31.80;99.90
18823;DHT22;9540;51.550;7.980;2023-07-09T14:17:18;31.70;99.90
18823;DHT22;9540;51.550;7.980;2023-07-09T14:19:47;31.70;99.90
18823;DHT22;9540;51.550;7.980;2023-07-09T14:22:26;31.60;99.90
18823;DHT22;9540;51.550;7.980;2023-07-09T14:24:54;31.60;99.90
18823;DHT22;9540;51.550;7.980;2023-07-09T14:27:21;31.50;99.90
18823;DHT22;9540;51.550;7.980;2023-07-09T14:29:48;31.40;99.90
18823;DHT22;9540;51.550;7.980;2023-07-09T14:32:36;31.30;99.90
18823;DHT22;9540;51.550;7.980;2023-07-09T14:35:11;31.20;99.90
18823;DHT22;9540;51.550;7.980;2023-07-09T14:37:40;31.10;99.90
18823;DHT22;9540;51.550;7.980;2023-07-09T14:40:08;31.00;99.90
18823;DHT22;9540;51.550;7.980;2023-07-09T14:42:35;30.90;99.90
18823;DHT22;9540;51.550;7.980;2023-07-09T14:45:03;30.80;99.90
18823;DHT22;9540;51.550;7.980;2023-07-09T14:47:30;30.60;99.90
18823;DHT22;9540;51.550;7.980;2023-07-09T14:49:58;30.50;99.90
18823;DHT22;9540;51.550;7.980;2023-07-09T14:52:25;30.30;99.90
18823;DHT22;9540;51.550;7.980;2023-07-09T14:54:53;30.10;99.90
18823;DHT22;9540;51.550;7.980;2023-07-09T14:57:21;30.00;99.90
18823;DHT22;9540;51.550;7.980;2023-07-09T14:59:50;29.90;99.90
18823;DHT22;9540;51.550;7.980;2023-07-09T15:02:29;29.70;99.90
18823;DHT22;9540;51.550;7.980;2023-07-09T15:04:57;29.60;99.90
18823;DHT22;9540;51.550;7.980;2023-07-09T15:07:24;29.40;99.90
18823;DHT22;9540;51.550;7.980;2023-07-09T15:09:56;29.40;99.90
18823;DHT22;9540;51.550;7.980;2023-07-09T15:12:27;29.20;99.90
18823;DHT22;9540;51.550;7.980;2023-07-09T15:15:01;29.10;99.90
18823;DHT22;9540;51.550;7.980;2023-07-09T15:17:32;28.90;99.90
18823;DHT22;9540;51.550;7.980;2023-07-09T15:19:59;28.80;99.90
18823;DHT22;9540;51.550;7.980;2023-07-09T15:22:29;28.60;99.90
18823;DHT22;9540;51.550;7.980;2023-07-09T15:24:59;28.50;99.90
18823;DHT22;9540;51.550;7.980;2023-07-09T15:27:26;28.40;99.90
18823;DHT22;9540;51.550;7.980;2023-07-09T15:29:53;28.30;99.90
18823;DHT22;9540;51.550;7.980;2023-07-09T15:32:22;28.30;99.90
18823;DHT22;9540;51.550;7.980;2023-07-09T15:34:50;28.30;99.90
18823;DHT22;9540;51.550;7.980;2023-07-09T15:37:18;28.30;99.90
18823;DHT22;9540;51.550;7.980;2023-07-09T15:39:45;28.20;99.90
18823;DHT22;9540;51.550;7.980;2023-07-09T15:42:14;28.10;99.90
18823;DHT22;9540;51.550;7.980;2023-07-09T15:44:41;28.10;99.90
18823;DHT22;9540;51.550;7.980;2023-07-09T15:47:16;28.00;99.90
18823;DHT22;9540;51.550;7.980;2023-07-09T15:49:44;28.00;99.90
18823;DHT22;9540;51.550;7.980;2023-07-09T15:52:11;27.90;99.90
18823;DHT22;9540;51.550;7.980;2023-07-09T15:54:38;27.80;99.90
18823;DHT22;9540;51.550;7.980;2023-07-09T15:57:08;27.70;99.90
18823;DHT22;9540;51.550;7.980;2023-07-09T15:59:40;27.40;99.90
18823;DHT22;9540;51.550;7.980;2023-07-09T16:02:11;27.00;99.90